Aviation Digital Data Service (ADDS)

Output produced by METARs form (1242 UTC 28 August 2015)
found at http://aviationweather.gov/adds/metars/
 
METAR text: KBFM 281153Z 34005KT 10SM CLR 20/18 A2999 RMK AO2 SLP154 T02000178 10217 20194 53007
Conditions at: KBFM (MOBILE/BROOKLEY , AL, US) observed 1153 UTC 28 August 2015
Temperature: 20.0°C (68°F)
Dewpoint: 17.8°C (64°F) [RH = 87%]
Pressure (altimeter): 29.99 inches Hg (1015.7 mb)
[Sea-level pressure: 1015.4 mb]
Winds: from the NNW (340 degrees) at 6 MPH (5 knots; 2.6 m/s)
Visibility: 10 or more miles (16+ km)
Ceiling: at least 12,000 feet AGL
Clouds: sky clear below 12,000 feet AGL
Weather: no significant weather observed at this time